createdAt,value
2023-01-18T08:12:39.407Z,744.00
2023-01-18T12:35:28.311Z,3166.00
2023-01-18T12:36:28.235Z,3107.00
2023-01-18T12:37:28.156Z,3162.00
2023-01-18T12:38:28.106Z,3305.00
2023-01-18T12:39:27.992Z,3098.00
2023-01-18T12:40:27.906Z,3098.00
2023-01-18T12:41:27.822Z,3101.00
2023-01-18T12:42:27.730Z,3152.00
2023-01-18T12:43:27.668Z,3896.00
2023-01-18T12:44:27.549Z,3505.00
2023-01-18T12:45:27.462Z,3217.00
2023-01-18T12:46:27.408Z,3224.00
2023-01-18T12:47:27.277Z,3214.00
2023-01-18T12:48:27.173Z,3287.00
2023-01-18T12:49:27.081Z,3120.00
2023-01-18T12:50:26.992Z,3134.00
2023-01-18T12:51:26.871Z,3136.00
2023-01-18T12:52:26.787Z,3171.00
2023-01-18T12:53:26.703Z,3168.00
2023-01-18T12:54:26.557Z,3173.00
2023-01-18T12:55:26.463Z,3178.00
2023-01-18T12:56:26.351Z,3140.00
2023-01-18T12:57:26.242Z,3027.00
2023-01-18T12:58:26.144Z,3060.00
2023-01-18T12:59:26.035Z,3067.00
2023-01-18T13:00:25.938Z,3073.00
2023-01-18T13:01:25.950Z,3078.00
2023-01-18T13:02:25.735Z,3082.00
2023-01-18T13:03:25.668Z,3085.00
2023-01-18T13:04:25.520Z,3087.00
2023-01-18T13:05:25.418Z,3092.00
2023-01-18T13:06:25.325Z,3089.00
2023-01-18T13:07:25.206Z,3080.00
2023-01-18T13:08:25.095Z,3073.00
2023-01-18T13:09:24.992Z,3077.00
2023-01-18T13:10:24.911Z,3075.00
2023-01-18T13:11:24.804Z,3070.00
2023-01-18T13:12:24.706Z,3062.00
2023-01-18T13:13:24.596Z,3052.00
2023-01-18T13:14:24.499Z,3044.00
2023-01-18T13:15:24.381Z,3036.00
2023-01-18T13:16:24.274Z,3032.00
2023-01-18T13:17:24.175Z,3026.00
2023-01-18T13:18:24.087Z,3025.00
2023-01-18T13:19:24.838Z,3027.00
2023-01-18T13:20:23.891Z,3027.00
2023-01-18T13:21:23.796Z,3024.00
2023-01-18T13:22:23.699Z,3019.00
2023-01-18T13:23:23.596Z,3011.00
2023-01-18T13:24:23.498Z,3001.00
2023-01-18T13:25:25.031Z,2993.00
2023-01-18T13:26:23.317Z,2989.00
2023-01-18T13:27:23.202Z,2994.00
2023-01-18T13:28:23.107Z,2996.00
2023-01-18T13:29:23.003Z,2994.00
2023-01-18T13:30:22.903Z,2990.00
2023-01-18T13:31:22.821Z,2982.00
2023-01-18T13:32:22.708Z,2975.00
2023-01-18T13:33:22.603Z,2966.00
2023-01-18T13:34:22.517Z,2962.00
2023-01-18T13:35:24.987Z,2956.00
2023-01-18T13:36:22.293Z,2957.00
2023-01-18T13:37:22.188Z,2953.00
2023-01-18T13:38:25.442Z,2949.00
2023-01-18T13:40:21.880Z,2943.00
2023-01-18T13:41:21.777Z,2937.00
2023-01-18T13:42:21.683Z,2935.00
2023-01-18T13:50:20.851Z,2899.00
2023-01-18T14:10:19.373Z,2809.00
2023-01-18T14:11:19.356Z,2810.00
2023-01-18T14:12:19.267Z,2803.00
2023-01-18T14:13:19.199Z,2797.00
2023-01-18T14:14:19.147Z,2797.00
2023-01-18T14:16:19.080Z,2790.00
2023-01-18T14:17:18.972Z,2787.00
2023-01-18T14:19:18.863Z,2783.00
2023-01-18T14:20:18.786Z,2779.00
2023-01-18T14:21:18.724Z,2772.00
2023-01-18T14:22:18.672Z,2763.00
2023-01-18T14:23:18.610Z,2757.00
2023-01-18T14:24:18.539Z,2755.00
2023-01-18T14:25:18.487Z,2754.00
2023-01-18T14:26:18.430Z,2746.00
2023-01-18T14:27:18.374Z,2748.00
2023-01-18T14:28:18.317Z,2739.00
2023-01-18T14:29:18.262Z,2737.00
2023-01-18T14:30:18.211Z,2738.00
2023-01-18T14:31:18.156Z,2739.00
2023-01-18T14:32:18.094Z,2728.00
2023-01-18T14:33:18.028Z,2719.00
2023-01-18T14:34:17.968Z,2719.00
2023-01-18T14:35:17.911Z,2719.00
2023-01-18T14:36:17.905Z,2724.00
2023-01-18T14:37:17.816Z,2721.00
2023-01-18T14:38:19.004Z,2718.00
2023-01-18T14:39:17.689Z,2720.00
2023-01-18T14:40:17.651Z,2716.00
2023-01-18T14:41:17.578Z,2706.00
2023-01-18T14:42:17.537Z,2703.00
2023-01-18T14:43:17.476Z,2697.00
2023-01-18T14:44:17.439Z,2692.00
2023-01-18T14:45:17.366Z,2691.00
2023-01-18T14:46:17.354Z,2685.00
2023-01-18T14:47:23.884Z,2679.00
2023-01-18T14:48:18.164Z,2678.00
2023-01-18T14:49:17.067Z,2680.00
2023-01-18T14:50:16.955Z,2680.00
2023-01-18T14:51:16.858Z,2678.00
2023-01-18T14:52:16.748Z,2674.00
2023-01-18T14:53:16.699Z,2666.00
2023-01-18T14:54:16.527Z,2663.00
2023-01-18T14:55:16.419Z,2659.00
2023-01-18T14:56:16.335Z,2651.00
2023-01-18T14:57:16.211Z,2639.00
2023-01-18T14:58:16.138Z,2634.00
2023-01-18T14:59:15.993Z,2622.00
2023-01-18T15:00:15.958Z,2621.00
2023-01-18T15:01:15.963Z,2622.00
2023-01-18T15:02:15.872Z,2623.00
2023-01-18T15:03:15.799Z,2629.00
2023-01-18T15:04:15.744Z,2632.00
2023-01-18T15:05:15.713Z,2640.00
2023-01-18T15:06:15.650Z,2644.00
2023-01-18T15:07:15.606Z,2645.00
2023-01-18T15:08:15.557Z,2645.00
2023-01-18T15:09:15.500Z,2083.00
2023-01-18T15:39:14.269Z,2151.00
2023-01-18T15:40:14.232Z,2154.00
2023-01-18T15:41:14.192Z,2157.00
2023-01-18T15:42:14.160Z,2156.00
2023-01-18T15:43:14.119Z,2153.00
2023-01-18T15:44:14.066Z,2146.00
2023-01-18T15:45:14.024Z,2143.00
2023-01-18T15:46:13.979Z,2142.00
2023-01-18T15:47:13.941Z,2142.00
2023-01-18T15:48:13.895Z,2145.00
2023-01-18T15:49:13.840Z,2144.00
2023-01-18T15:50:13.808Z,2143.00
2023-01-18T15:51:13.762Z,2144.00
2023-01-18T15:52:13.721Z,2137.00
2023-01-18T15:53:13.671Z,2138.00
2023-01-18T15:54:13.631Z,2137.00
2023-01-18T15:55:13.577Z,2141.00
2023-01-18T15:56:13.535Z,2136.00
2023-01-18T15:57:13.501Z,2128.00
2023-01-18T15:58:13.459Z,2125.00
2023-01-18T15:59:13.408Z,2111.00
2023-01-18T16:00:13.373Z,2049.00
2023-01-18T16:01:13.435Z,2053.00
2023-01-18T16:02:13.398Z,2056.00
2023-01-18T16:03:13.248Z,2067.00
2023-01-18T16:04:13.202Z,2066.00
2023-01-18T16:05:13.181Z,2058.00
2023-01-18T16:06:13.119Z,2048.00
2023-01-18T16:07:13.075Z,2045.00
2023-01-18T16:08:16.020Z,2039.00
2023-01-18T16:09:13.372Z,2039.00
2023-01-18T16:10:12.828Z,2035.00
2023-01-18T16:11:12.722Z,2029.00
2023-01-18T16:12:12.615Z,2031.00
2023-01-18T16:13:12.511Z,2026.00
2023-01-18T16:14:12.400Z,2014.00
2023-01-18T16:15:12.300Z,2016.00
2023-01-18T16:16:12.208Z,2004.00
2023-01-18T16:17:12.090Z,1997.00
2023-01-18T16:18:12.001Z,1993.00
2023-01-18T16:19:11.892Z,1991.00
2023-01-18T16:20:11.788Z,1990.00
2023-01-18T16:21:11.691Z,1992.00
2023-01-18T16:22:11.591Z,1998.00
2023-01-18T16:23:11.479Z,2000.00
2023-01-18T16:24:11.383Z,2000.00
2023-01-18T16:25:11.280Z,1998.00
2023-01-18T16:26:11.224Z,1994.00
2023-01-18T16:27:11.395Z,2003.00
2023-01-18T16:28:10.986Z,2013.00
2023-01-18T16:29:10.880Z,2023.00
2023-01-18T16:30:10.793Z,2034.00
2023-01-18T16:31:10.794Z,2047.00
2023-01-18T16:32:10.564Z,2054.00
2023-01-18T16:33:10.476Z,2055.00
2023-01-18T16:34:10.364Z,2060.00
2023-01-18T16:35:11.027Z,2058.00
2023-01-18T16:36:10.149Z,2062.00
2023-01-18T16:37:10.060Z,2063.00
2023-01-18T16:38:09.957Z,2065.00
2023-01-18T16:39:09.845Z,2069.00
2023-01-18T16:40:09.752Z,2069.00
2023-01-18T16:41:09.701Z,2068.00
2023-01-18T16:42:09.661Z,2067.00
2023-01-18T16:43:09.622Z,2067.00
2023-01-18T16:44:09.615Z,2062.00
2023-01-18T16:45:09.556Z,2061.00
2023-01-18T16:46:09.644Z,2065.00
2023-01-18T16:47:09.478Z,2061.00
2023-01-18T16:48:09.440Z,2066.00
2023-01-18T16:49:09.403Z,2068.00
2023-01-18T16:50:09.358Z,2066.00
2023-01-18T16:51:09.315Z,2064.00
2023-01-18T16:52:09.282Z,2065.00
2023-01-18T16:53:09.265Z,2067.00
2023-01-18T16:54:09.209Z,2062.00
2023-01-18T16:55:09.187Z,2059.00
2023-01-18T16:56:09.144Z,2059.00
2023-01-18T16:57:09.111Z,2059.00
2023-01-18T16:58:09.077Z,2053.00
2023-01-18T16:59:09.048Z,2053.00
2023-01-18T17:00:09.021Z,2053.00
2023-01-18T17:01:09.051Z,2053.00
2023-01-18T17:02:09.073Z,2052.00
2023-01-18T17:03:08.975Z,2051.00
2023-01-18T17:04:08.881Z,2051.00
2023-01-18T17:05:08.854Z,2049.00
2023-01-18T17:07:08.784Z,2040.00
2023-01-18T17:08:08.751Z,2038.00
2023-01-18T17:09:08.704Z,2039.00
2023-01-18T17:10:08.685Z,2038.00
2023-01-18T17:11:08.641Z,2037.00
2023-01-18T17:12:08.597Z,2037.00
2023-01-18T17:13:08.569Z,2030.00
2023-01-18T17:14:08.527Z,2030.00
2023-01-18T17:15:08.493Z,2030.00
2023-01-18T17:18:08.395Z,2034.00
2023-01-18T17:19:08.333Z,2035.00
2023-01-18T17:20:08.303Z,2039.00
2023-01-18T17:21:08.245Z,2038.00
2023-01-18T17:22:08.212Z,2034.00
2023-01-18T17:23:08.177Z,2035.00
2023-01-18T17:24:08.134Z,2034.00
2023-01-18T17:25:08.108Z,2033.00
2023-01-18T17:26:08.069Z,2034.00
2023-01-18T17:27:08.024Z,2033.00
2023-01-18T17:28:07.984Z,2036.00
2023-01-18T17:29:07.956Z,2038.00
2023-01-18T17:30:07.930Z,2040.00
2023-01-18T17:31:07.904Z,2037.00
2023-01-18T17:32:07.848Z,2033.00
2023-01-18T17:33:07.807Z,2026.00
2023-01-18T17:34:07.775Z,2028.00
2023-01-18T17:35:07.757Z,2024.00
2023-01-18T17:36:07.710Z,2024.00
2023-01-18T17:37:07.680Z,2019.00
2023-01-18T17:38:22.158Z,2019.00
2023-01-18T17:40:16.985Z,2027.00
2023-01-18T17:41:11.392Z,2029.00
2023-01-18T17:42:08.361Z,2032.00
2023-01-18T17:43:07.132Z,2033.00
2023-01-18T17:44:07.048Z,2031.00
2023-01-18T17:45:06.943Z,2027.00
2023-01-18T17:46:06.957Z,2024.00
2023-01-18T17:47:06.758Z,2021.00
2023-01-18T17:48:06.641Z,2020.00
2023-01-18T17:49:06.541Z,2016.00
2023-01-18T17:50:06.430Z,2014.00
2023-01-18T17:51:06.326Z,2010.00
2023-01-18T17:52:06.252Z,2009.00
2023-01-18T17:53:06.143Z,2009.00
2023-01-18T17:54:13.169Z,2003.00
2023-01-18T17:55:06.967Z,2006.00
2023-01-18T17:56:05.865Z,2003.00
2023-01-18T17:57:05.755Z,2003.00
2023-01-18T17:58:05.658Z,2004.00
2023-01-18T17:59:05.546Z,1999.00
2023-01-18T21:22:58.294Z,1805.00
2023-01-18T21:23:58.256Z,1802.00
2023-01-18T21:24:58.212Z,1799.00
2023-01-18T21:25:58.204Z,1794.00
2023-01-18T21:26:58.184Z,1791.00
2023-01-18T21:27:58.553Z,1789.00
2023-01-18T21:39:57.796Z,1794.00
2023-01-18T21:40:57.748Z,1791.00
2023-01-18T21:41:57.715Z,1788.00
2023-01-18T21:42:57.693Z,1787.00
2023-01-18T21:43:57.659Z,1789.00
2023-01-18T21:44:57.608Z,1793.00
2023-01-18T21:45:57.608Z,1794.00
2023-01-18T21:46:57.588Z,1796.00
2023-01-18T21:47:58.022Z,1795.00
2023-01-18T21:48:57.461Z,1791.00
2023-01-18T21:50:16.613Z,1788.00
2023-01-18T21:51:57.226Z,1790.00
2023-01-18T21:52:57.153Z,1791.00
2023-01-18T21:53:57.061Z,1790.00
2023-01-18T21:54:56.949Z,1786.00
2023-01-18T21:55:56.851Z,1784.00
2023-01-18T21:56:56.770Z,1780.00
2023-01-18T21:57:56.667Z,1780.00
2023-01-18T21:58:56.571Z,1778.00
2023-01-18T21:59:56.465Z,1777.00
2023-01-18T22:00:56.435Z,1774.00
2023-01-18T22:01:56.502Z,1776.00
2023-01-18T22:02:56.283Z,1776.00
2023-01-18T22:05:55.992Z,1779.00
2023-01-18T22:08:55.813Z,1782.00
2023-01-18T22:10:55.719Z,1780.00
2023-01-18T22:11:55.651Z,1779.00
2023-01-18T22:12:55.581Z,1771.00
2023-01-18T22:13:55.522Z,1769.00
